羽田店 飛び初めーーーー!!!!

LUXURY FLIGHT

080-7560-1817

羽田空港本店:東京都大田区羽田空港3-3-2
第1旅客ターミナル5階
営業時間:10:00~20:00 定休日:年中無休
電話番号:080-7560-1817

セントレア店:愛知県常滑市セントレア1-1
FLIGHT OF DREAMS FLIGHT PARK
営業時間:10:00~20:00 定休日:年中無休
電話番号:080-4945-5666

lv

羽田店 飛び初めーーーー!!!!

STAFF BLOG

2020/01/04 羽田店 飛び初めーーーー!!!!

こんにちはーーーーーー

今日も気持ちのいい快晴の羽田周辺!!!

 

RJTT 040400Z 35008KT 9999 FEW030 SCT040 BKN060 12/M02 Q1012

NOSIG RMK 1CU030 3SC040 5SC060 A2991

 

本日から羽田店、営業開始でございます。

2020年も何卒よろしくお願いいたします!!

 

img_4419

 

 

今年も常連さまからたくさんの年賀状を頂戴しまして、

誠にありがとうございました

 

 

スタッフ一同心より御礼申し上げます。

一枚一枚、しっかりと拝見させていただいております!!

 

 

春のビッグニュースに向けて、皆様により一層楽しんでいただけるお店になるよう、

皆様と共に、本気で遊びながら、人として一人の漢として、ガンガン成長し続けて参ります。

2020年も初日から全力で爆走することを誓います。

 

引き続き、どうぞよろしくお願いいたします。

 

 

2020年、羽田店一発目のブログから

お付き合いくださり、本当にありがとうございました。

 

 

「感謝」

 

 

 

 

 

 

 

 

 

 

 

TOP